createdAt,value
2017-11-19T00:00:48.673Z,1007.66
2017-11-19T00:02:41.656Z,1007.72
2017-11-19T00:03:41.708Z,1007.74
2017-11-19T00:05:34.708Z,1007.75
2017-11-19T00:06:34.744Z,1007.74
2017-11-19T00:08:27.725Z,1007.74
2017-11-19T00:09:27.785Z,1007.74
2017-11-19T00:11:20.774Z,1007.76
2017-11-19T00:12:20.811Z,1007.79
2017-11-19T00:14:13.792Z,1007.76
2017-11-19T00:15:13.845Z,1007.73
2017-11-19T00:17:06.855Z,1007.82
2017-11-19T00:18:06.883Z,1007.84
2017-11-19T00:20:00.393Z,1007.82
2017-11-19T00:21:00.427Z,1007.78
2017-11-19T00:22:53.406Z,1007.77
2017-11-19T00:23:53.459Z,1007.75
2017-11-19T00:25:46.459Z,1007.68
2017-11-19T00:26:46.496Z,1007.73
2017-11-19T00:28:39.483Z,1007.71
2017-11-19T00:29:39.535Z,1007.74
2017-11-19T00:31:32.533Z,1007.69
2017-11-19T00:32:32.571Z,1007.70
2017-11-19T00:34:25.546Z,1007.72
2017-11-19T00:35:25.603Z,1007.70
2017-11-19T00:37:18.601Z,1007.63
2017-11-19T00:38:18.640Z,1007.67
2017-11-19T00:40:11.635Z,1007.54
2017-11-19T00:41:11.669Z,1007.55
2017-11-19T00:43:04.653Z,1007.50
2017-11-19T00:44:04.704Z,1007.49
2017-11-19T00:45:57.720Z,1007.47
2017-11-19T00:46:57.762Z,1007.51
2017-11-19T00:48:50.720Z,1007.52
2017-11-19T00:49:50.775Z,1007.50
2017-11-19T00:51:43.777Z,1007.54
2017-11-19T00:52:43.807Z,1007.52
2017-11-19T00:54:36.791Z,1007.46
2017-11-19T00:55:36.844Z,1007.45
2017-11-19T00:57:29.860Z,1007.37
2017-11-19T00:58:29.891Z,1007.41
2017-11-19T01:00:22.897Z,1007.41
2017-11-19T01:01:22.940Z,1007.42
2017-11-19T01:03:15.912Z,1007.41
2017-11-19T01:04:15.968Z,1007.41
2017-11-19T01:06:08.971Z,1007.43
2017-11-19T01:07:09.004Z,1007.44
2017-11-19T01:09:01.985Z,1007.40
2017-11-19T01:10:02.038Z,1007.37
2017-11-19T01:11:55.036Z,1007.32
2017-11-19T01:12:55.074Z,1007.31
2017-11-19T01:14:48.068Z,1007.22
2017-11-19T01:15:48.114Z,1007.22
2017-11-19T01:17:41.109Z,1007.21
2017-11-19T01:18:41.144Z,1007.23
2017-11-19T01:20:34.140Z,1007.28
2017-11-19T01:21:34.179Z,1007.23
2017-11-19T01:23:27.161Z,1007.25
2017-11-19T01:24:27.213Z,1007.23
2017-11-19T01:26:20.292Z,1007.30
2017-11-19T01:27:20.246Z,1007.23
2017-11-19T01:29:13.234Z,1007.21
2017-11-19T01:30:13.282Z,1007.18
2017-11-19T01:32:06.283Z,1007.21
2017-11-19T01:33:06.317Z,1007.17
2017-11-19T01:34:59.304Z,1007.16
2017-11-19T01:35:59.362Z,1007.13
2017-11-19T01:37:52.357Z,1007.16
2017-11-19T01:38:52.394Z,1007.14
2017-11-19T01:40:45.400Z,1007.16
2017-11-19T01:41:45.442Z,1007.18
2017-11-19T01:43:38.416Z,1007.20
2017-11-19T01:44:38.470Z,1007.27
2017-11-19T01:46:31.468Z,1007.34
2017-11-19T01:47:31.504Z,1007.38
2017-11-19T01:49:24.490Z,1007.38
2017-11-19T01:50:24.542Z,1007.39
2017-11-19T01:52:17.538Z,1007.38
2017-11-19T01:53:17.574Z,1007.36
2017-11-19T01:55:10.557Z,1007.26
2017-11-19T01:56:10.611Z,1007.25
2017-11-19T01:58:03.607Z,1007.22
2017-11-19T01:59:03.643Z,1007.19
2017-11-19T02:00:56.644Z,1007.15
2017-11-19T02:01:56.678Z,1007.18
2017-11-19T02:03:49.654Z,1007.09
2017-11-19T02:04:49.714Z,1007.10
2017-11-19T02:06:42.711Z,1007.12
2017-11-19T02:07:42.747Z,1007.14
2017-11-19T02:09:35.723Z,1007.18
2017-11-19T02:10:35.779Z,1007.18
2017-11-19T02:12:28.775Z,1007.24
2017-11-19T02:13:28.811Z,1007.26
2017-11-19T02:15:21.811Z,1007.27
2017-11-19T02:16:21.852Z,1007.28
2017-11-19T02:18:14.855Z,1007.23
2017-11-19T02:19:14.892Z,1007.25
2017-11-19T02:21:07.897Z,1007.31
2017-11-19T02:22:07.926Z,1007.36
2017-11-19T02:24:00.908Z,1007.28
2017-11-19T02:25:00.956Z,1007.29
2017-11-19T02:26:53.956Z,1007.32
2017-11-19T02:27:53.991Z,1007.29
2017-11-19T02:29:46.967Z,1007.28
2017-11-19T02:30:47.022Z,1007.23
2017-11-19T02:32:40.027Z,1007.25
2017-11-19T02:33:40.062Z,1007.25
2017-11-19T02:35:33.038Z,1007.24
2017-11-19T02:36:33.094Z,1007.27
2017-11-19T02:38:26.089Z,1007.27
2017-11-19T02:39:26.126Z,1007.27
2017-11-19T02:41:19.112Z,1007.27
2017-11-19T02:42:19.168Z,1007.26
2017-11-19T02:44:12.165Z,1007.26
2017-11-19T02:45:12.199Z,1007.29
2017-11-19T02:47:05.200Z,1007.26
2017-11-19T02:48:05.233Z,1007.26
2017-11-19T02:49:58.216Z,1007.28
2017-11-19T02:50:58.265Z,1007.24
2017-11-19T02:52:51.263Z,1007.28
2017-11-19T02:53:51.299Z,1007.31
2017-11-19T02:55:44.275Z,1007.30
2017-11-19T02:56:44.332Z,1007.31
2017-11-19T02:58:37.330Z,1007.24
2017-11-19T02:59:37.365Z,1007.26
2017-11-19T03:01:30.342Z,1007.18
2017-11-19T03:02:30.398Z,1007.18
2017-11-19T03:04:23.394Z,1007.19
2017-11-19T03:05:23.427Z,1007.14
2017-11-19T03:07:16.426Z,1007.14
2017-11-19T03:08:16.463Z,1007.19
2017-11-19T03:10:09.437Z,1007.19
2017-11-19T03:11:09.495Z,1007.16
2017-11-19T03:13:02.502Z,1007.17
2017-11-19T03:14:02.526Z,1007.17
2017-11-19T03:15:55.502Z,1007.14
2017-11-19T03:16:55.558Z,1007.16
2017-11-19T03:18:48.560Z,1007.09
2017-11-19T03:19:48.591Z,1007.13
2017-11-19T03:21:41.568Z,1007.14
2017-11-19T03:22:41.624Z,1007.11
2017-11-19T03:24:34.621Z,1006.99
2017-11-19T03:25:34.655Z,1007.00
2017-11-19T03:27:27.661Z,1007.06
2017-11-19T03:28:27.690Z,1007.03
2017-11-19T03:30:20.676Z,1007.00
2017-11-19T03:31:20.735Z,1007.00
2017-11-19T03:33:13.740Z,1007.05
2017-11-19T03:34:13.774Z,1007.05
2017-11-19T03:36:06.749Z,1007.02
2017-11-19T03:37:06.812Z,1007.05
2017-11-19T03:38:59.801Z,1007.09
2017-11-19T03:39:59.836Z,1007.15
2017-11-19T03:41:52.818Z,1007.17
2017-11-19T03:42:52.871Z,1007.16
2017-11-19T03:44:45.875Z,1007.07
2017-11-19T03:45:45.906Z,1007.09
2017-11-19T03:47:38.918Z,1007.10
2017-11-19T03:48:38.952Z,1007.14
2017-11-19T03:50:31.929Z,1007.07
2017-11-19T03:51:31.983Z,1007.08
2017-11-19T03:53:24.980Z,1007.05
2017-11-19T03:54:25.017Z,1007.07
2017-11-19T03:56:17.995Z,1007.10
2017-11-19T03:57:18.049Z,1007.10
2017-11-19T03:59:11.050Z,1007.07
2017-11-19T04:00:11.088Z,1007.06
2017-11-19T04:02:04.068Z,1007.11
2017-11-19T04:03:04.118Z,1007.08
2017-11-19T04:04:57.115Z,1007.11
2017-11-19T04:05:57.151Z,1007.12
2017-11-19T04:07:50.146Z,1007.08
2017-11-19T04:08:50.181Z,1007.09
2017-11-19T04:10:43.169Z,1007.16
2017-11-19T04:11:43.229Z,1007.14
2017-11-19T04:13:36.227Z,1007.21
2017-11-19T04:14:36.265Z,1007.21
2017-11-19T04:16:29.241Z,1007.29
2017-11-19T04:17:29.295Z,1007.29
2017-11-19T04:19:22.805Z,1007.32
2017-11-19T04:20:22.835Z,1007.33
2017-11-19T04:22:15.821Z,1007.27
2017-11-19T04:23:15.876Z,1007.35
2017-11-19T04:25:08.882Z,1007.39
2017-11-19T04:26:08.909Z,1007.38
2017-11-19T04:28:01.908Z,1007.37
2017-11-19T04:29:01.944Z,1007.35
2017-11-19T04:30:54.917Z,1007.27
2017-11-19T04:31:54.977Z,1007.31
2017-11-19T04:33:47.972Z,1007.23
2017-11-19T04:34:48.008Z,1007.23
2017-11-19T04:36:40.990Z,1007.18
2017-11-19T04:37:41.042Z,1007.17
2017-11-19T04:39:35.036Z,1007.15
2017-11-19T04:40:35.076Z,1007.18
2017-11-19T04:42:28.079Z,1007.18
2017-11-19T04:43:28.139Z,1007.18
2017-11-19T04:45:21.129Z,1007.17
2017-11-19T04:46:21.165Z,1007.14
2017-11-19T04:48:14.171Z,1007.16
2017-11-19T04:49:14.204Z,1007.21
2017-11-19T04:51:07.188Z,1007.23
2017-11-19T04:52:07.246Z,1007.23
2017-11-19T04:54:00.243Z,1007.28
2017-11-19T04:55:00.276Z,1007.29
2017-11-19T04:56:53.772Z,1007.28
2017-11-19T04:57:53.835Z,1007.28
2017-11-19T04:59:46.817Z,1007.34
2017-11-19T05:00:46.849Z,1007.31
2017-11-19T05:02:39.840Z,1007.35
2017-11-19T05:03:39.896Z,1007.33
2017-11-19T05:05:32.892Z,1007.40
2017-11-19T05:06:32.925Z,1007.38
2017-11-19T05:08:25.924Z,1007.37
2017-11-19T05:09:25.961Z,1007.36
2017-11-19T05:11:18.937Z,1007.32
2017-11-19T05:12:18.995Z,1007.31
2017-11-19T05:14:11.996Z,1007.26
2017-11-19T05:15:12.031Z,1007.27
2017-11-19T05:17:05.013Z,1007.28
2017-11-19T05:18:05.072Z,1007.32
2017-11-19T05:19:58.080Z,1007.34
2017-11-19T05:20:58.101Z,1007.32
2017-11-19T05:22:51.077Z,1007.35
2017-11-19T05:23:51.132Z,1007.31
2017-11-19T05:25:44.135Z,1007.38
2017-11-19T05:26:44.171Z,1007.39
2017-11-19T05:28:37.168Z,1007.37
2017-11-19T05:29:37.202Z,1007.35
2017-11-19T05:31:30.190Z,1007.38
2017-11-19T05:32:30.231Z,1007.40
2017-11-19T05:34:23.232Z,1007.35
2017-11-19T05:35:23.297Z,1007.42
2017-11-19T05:37:16.243Z,1007.37
2017-11-19T05:38:16.301Z,1007.41
2017-11-19T05:40:09.301Z,1007.42
2017-11-19T05:41:09.331Z,1007.46
2017-11-19T05:43:02.315Z,1007.46
2017-11-19T05:44:02.365Z,1007.47
2017-11-19T05:45:55.367Z,1007.45
2017-11-19T05:46:55.399Z,1007.42
2017-11-19T05:48:48.396Z,1007.34
2017-11-19T05:49:48.434Z,1007.36
2017-11-19T05:51:41.406Z,1007.41
2017-11-19T05:52:41.464Z,1007.40
2017-11-19T05:54:34.463Z,1007.45
2017-11-19T05:55:34.496Z,1007.51
2017-11-19T05:57:27.484Z,1007.54
2017-11-19T05:58:27.577Z,1007.56
2017-11-19T06:00:20.535Z,1007.60
2017-11-19T06:01:20.568Z,1007.61
2017-11-19T06:03:13.545Z,1007.55
2017-11-19T06:04:13.600Z,1007.54
2017-11-19T06:06:06.600Z,1007.55
2017-11-19T06:07:06.638Z,1007.57
2017-11-19T06:08:59.632Z,1007.59
2017-11-19T06:09:59.668Z,1007.56
2017-11-19T06:11:52.642Z,1007.55
2017-11-19T06:12:52.696Z,1007.57
2017-11-19T06:14:45.702Z,1007.55
2017-11-19T06:15:45.736Z,1007.59
2017-11-19T06:17:38.712Z,1007.55
2017-11-19T06:18:38.779Z,1007.50
2017-11-19T06:20:31.769Z,1007.52
2017-11-19T06:21:31.794Z,1007.49
2017-11-19T06:23:24.779Z,1007.54
2017-11-19T06:24:24.833Z,1007.55
2017-11-19T06:26:17.829Z,1007.60
2017-11-19T06:27:17.866Z,1007.58
2017-11-19T06:29:10.862Z,1007.59
2017-11-19T06:30:10.898Z,1007.58
2017-11-19T06:32:03.879Z,1007.51
2017-11-19T06:33:03.932Z,1007.49
2017-11-19T06:34:56.938Z,1007.42
2017-11-19T06:35:56.973Z,1007.47
2017-11-19T06:37:49.957Z,1007.51
2017-11-19T06:38:50.032Z,1007.55
2017-11-19T06:40:42.998Z,1007.51
2017-11-19T06:41:43.034Z,1007.52
2017-11-19T06:43:36.051Z,1007.50
2017-11-19T06:44:36.076Z,1007.51
2017-11-19T06:46:29.060Z,1007.55
2017-11-19T06:47:29.115Z,1007.52
2017-11-19T06:49:22.107Z,1007.55
2017-11-19T06:50:22.147Z,1007.58
2017-11-19T06:52:15.138Z,1007.62
2017-11-19T06:53:15.178Z,1007.65
2017-11-19T06:55:08.201Z,1007.68
2017-11-19T06:56:08.210Z,1007.70
2017-11-19T06:58:01.192Z,1007.71
2017-11-19T06:59:01.247Z,1007.74
2017-11-19T07:00:54.244Z,1007.75
2017-11-19T07:01:54.279Z,1007.76
2017-11-19T07:03:47.284Z,1007.80
2017-11-19T07:04:47.318Z,1007.76
2017-11-19T07:06:40.293Z,1007.74
2017-11-19T07:07:40.344Z,1007.76
2017-11-19T07:09:33.349Z,1007.78
2017-11-19T07:10:33.375Z,1007.87
2017-11-19T07:12:26.861Z,1007.88
2017-11-19T07:13:26.915Z,1007.88
2017-11-19T07:15:19.938Z,1007.85
2017-11-19T07:16:19.948Z,1007.80
2017-11-19T07:18:12.928Z,1007.82
2017-11-19T07:19:12.979Z,1007.85
2017-11-19T07:21:06.009Z,1007.90
2017-11-19T07:22:06.019Z,1007.91
2017-11-19T07:23:58.996Z,1007.87
2017-11-19T07:24:59.053Z,1007.88
2017-11-19T07:26:52.047Z,1007.87
2017-11-19T07:27:52.103Z,1007.88
2017-11-19T07:29:45.080Z,1007.90
2017-11-19T07:30:45.114Z,1007.91
2017-11-19T07:32:38.086Z,1007.94
2017-11-19T07:33:38.147Z,1007.98
2017-11-19T07:35:31.139Z,1008.04
2017-11-19T07:36:31.175Z,1008.01
2017-11-19T07:38:24.148Z,1008.02
2017-11-19T07:39:24.204Z,1008.01
2017-11-19T07:41:17.202Z,1008.06
2017-11-19T07:42:17.244Z,1008.01
2017-11-19T07:44:10.221Z,1007.99
2017-11-19T07:45:10.272Z,1008.00
2017-11-19T07:47:03.328Z,1008.00
2017-11-19T07:48:03.313Z,1007.95
2017-11-19T07:49:56.301Z,1008.03
2017-11-19T07:50:56.363Z,1008.03
2017-11-19T07:52:49.316Z,1008.05
2017-11-19T07:53:49.367Z,1008.10
2017-11-19T07:55:42.366Z,1008.13
2017-11-19T07:56:42.400Z,1008.17
2017-11-19T07:58:35.377Z,1008.23
2017-11-19T07:59:35.495Z,1008.26
2017-11-19T08:01:28.433Z,1008.25
2017-11-19T08:02:28.470Z,1008.32
2017-11-19T08:04:21.445Z,1008.32
2017-11-19T08:05:21.501Z,1008.31
2017-11-19T08:07:14.497Z,1008.30
2017-11-19T08:08:14.533Z,1008.30
2017-11-19T08:10:07.528Z,1008.31
2017-11-19T08:11:07.562Z,1008.29
2017-11-19T08:13:01.049Z,1008.24
2017-11-19T08:14:01.106Z,1008.24
2017-11-19T08:15:54.103Z,1008.18
2017-11-19T08:16:54.138Z,1008.16
2017-11-19T08:18:47.116Z,1008.18
2017-11-19T08:19:47.172Z,1008.17
2017-11-19T08:21:40.174Z,1008.18
2017-11-19T08:22:40.220Z,1008.23
2017-11-19T08:24:33.197Z,1008.22
2017-11-19T08:25:33.247Z,1008.25
2017-11-19T08:27:26.245Z,1008.32
2017-11-19T08:28:26.279Z,1008.27
2017-11-19T08:30:19.279Z,1008.17
2017-11-19T08:31:19.331Z,1008.23
2017-11-19T08:33:12.292Z,1008.18
2017-11-19T08:34:12.357Z,1008.17
2017-11-19T08:36:05.479Z,1008.12
2017-11-19T08:37:05.379Z,1008.19
2017-11-19T08:38:58.355Z,1008.15
2017-11-19T08:39:58.416Z,1008.09
2017-11-19T08:41:51.418Z,1008.14
2017-11-19T08:42:51.451Z,1008.17
2017-11-19T08:44:44.428Z,1008.24
2017-11-19T08:45:44.483Z,1008.20
2017-11-19T08:47:37.483Z,1008.20
2017-11-19T08:48:37.524Z,1008.22
2017-11-19T08:50:30.595Z,1008.24
2017-11-19T08:51:30.583Z,1008.22
2017-11-19T08:53:23.530Z,1008.23
2017-11-19T08:54:23.594Z,1008.22
2017-11-19T08:56:16.583Z,1008.20
2017-11-19T08:57:16.619Z,1008.18
2017-11-19T08:59:09.605Z,1008.27
2017-11-19T09:00:09.655Z,1008.26
2017-11-19T09:02:02.652Z,1008.27
2017-11-19T09:03:02.689Z,1008.25
2017-11-19T09:04:55.681Z,1008.32
2017-11-19T09:05:55.727Z,1008.29
2017-11-19T09:07:48.725Z,1008.28
2017-11-19T09:08:48.767Z,1008.32
2017-11-19T09:10:41.759Z,1008.38
2017-11-19T09:11:41.796Z,1008.36
2017-11-19T09:13:35.285Z,1008.31
2017-11-19T09:14:35.341Z,1008.36
2017-11-19T09:16:28.348Z,1008.38
2017-11-19T09:17:28.386Z,1008.36
2017-11-19T09:19:21.365Z,1008.43
2017-11-19T09:20:21.423Z,1008.46
2017-11-19T09:22:14.419Z,1008.40
2017-11-19T09:23:14.456Z,1008.40
2017-11-19T09:25:07.440Z,1008.44
2017-11-19T09:26:07.491Z,1008.44
2017-11-19T09:28:00.533Z,1008.50
2017-11-19T09:29:00.528Z,1008.49
2017-11-19T09:30:53.522Z,1008.49
2017-11-19T09:31:53.561Z,1008.53
2017-11-19T09:33:46.548Z,1008.53
2017-11-19T09:34:46.600Z,1008.57
2017-11-19T09:36:39.600Z,1008.57
2017-11-19T09:37:39.636Z,1008.52
2017-11-19T09:39:32.611Z,1008.53
2017-11-19T09:40:32.669Z,1008.54
2017-11-19T09:42:25.669Z,1008.59
2017-11-19T09:43:25.702Z,1008.60
2017-11-19T09:45:18.684Z,1008.64
2017-11-19T09:46:18.739Z,1008.66
2017-11-19T09:48:11.737Z,1008.68
2017-11-19T09:49:11.782Z,1008.69
2017-11-19T09:51:04.773Z,1008.74
2017-11-19T09:52:04.807Z,1008.78
2017-11-19T09:53:57.792Z,1008.80
2017-11-19T09:54:57.851Z,1008.79
2017-11-19T09:56:50.861Z,1008.76
2017-11-19T09:57:50.887Z,1008.82
2017-11-19T09:59:43.866Z,1008.80
2017-11-19T10:00:43.924Z,1008.76
2017-11-19T10:02:36.925Z,1008.79
2017-11-19T10:03:36.980Z,1008.74
2017-11-19T10:05:29.938Z,1008.75
2017-11-19T10:06:29.995Z,1008.75
2017-11-19T10:08:23.001Z,1008.81
2017-11-19T10:09:23.038Z,1008.77
2017-11-19T10:11:16.081Z,1008.83
2017-11-19T10:12:16.073Z,1008.78
2017-11-19T10:14:09.060Z,1008.78
2017-11-19T10:15:09.107Z,1008.79
2017-11-19T10:17:02.121Z,1008.74
2017-11-19T10:18:02.154Z,1008.76
2017-11-19T10:19:55.124Z,1008.69
2017-11-19T10:20:55.183Z,1008.68
2017-11-19T10:22:48.229Z,1008.72
2017-11-19T10:23:48.539Z,1008.71
2017-11-19T10:25:41.230Z,1008.78
2017-11-19T10:26:41.280Z,1008.76
2017-11-19T10:28:34.354Z,1008.76
2017-11-19T10:29:34.334Z,1008.77
2017-11-19T10:31:27.346Z,1008.80
2017-11-19T10:32:27.411Z,1008.72
2017-11-19T10:34:20.386Z,1008.69
2017-11-19T10:35:20.652Z,1008.75
2017-11-19T10:37:13.459Z,1008.80
2017-11-19T10:38:13.505Z,1008.79
2017-11-19T10:40:07.338Z,1008.79
2017-11-19T10:41:07.442Z,1008.81
2017-11-19T10:43:00.411Z,1008.78
2017-11-19T10:44:00.461Z,1008.76
2017-11-19T10:45:53.427Z,1008.74
2017-11-19T10:46:53.484Z,1008.83
2017-11-19T10:48:46.487Z,1008.86
2017-11-19T10:49:46.527Z,1008.83
2017-11-19T10:51:39.541Z,1008.89
2017-11-19T10:52:39.563Z,1008.85
2017-11-19T10:54:33.049Z,1008.87
2017-11-19T10:55:33.103Z,1008.85
2017-11-19T10:57:26.125Z,1008.86
2017-11-19T10:58:26.147Z,1008.88
2017-11-19T11:00:19.150Z,1008.89
2017-11-19T11:01:19.223Z,1008.84
2017-11-19T11:03:12.212Z,1008.90
2017-11-19T11:04:12.252Z,1008.85
2017-11-19T11:06:05.247Z,1008.91
2017-11-19T11:07:05.312Z,1008.93
2017-11-19T11:08:58.323Z,1008.87
2017-11-19T11:09:58.352Z,1008.86
2017-11-19T11:11:51.343Z,1008.80
2017-11-19T11:12:51.391Z,1008.82
2017-11-19T11:14:44.375Z,1008.83
2017-11-19T11:15:44.421Z,1008.82
2017-11-19T11:17:37.413Z,1008.93
2017-11-19T11:18:37.732Z,1009.02
2017-11-19T11:20:30.451Z,1008.84
2017-11-19T11:21:30.511Z,1008.88
2017-11-19T11:23:23.490Z,1008.87
2017-11-19T11:24:23.529Z,1008.85
2017-11-19T11:26:16.514Z,1008.87
2017-11-19T11:27:16.581Z,1008.83
2017-11-19T11:29:09.575Z,1008.90
2017-11-19T11:30:09.607Z,1008.89
2017-11-19T11:32:02.620Z,1008.84
2017-11-19T11:33:02.674Z,1008.87
2017-11-19T11:34:55.673Z,1008.88
2017-11-19T11:35:55.692Z,1008.94
2017-11-19T11:37:48.703Z,1008.93
2017-11-19T11:38:48.767Z,1008.88
2017-11-19T11:40:41.724Z,1008.85
2017-11-19T11:41:41.781Z,1008.88
2017-11-19T11:43:35.783Z,1008.96
2017-11-19T11:44:35.828Z,1008.96
2017-11-19T11:46:28.812Z,1009.05
2017-11-19T11:47:28.867Z,1008.93
2017-11-19T11:49:21.900Z,1008.89
2017-11-19T11:50:21.920Z,1008.87
2017-11-19T11:52:14.930Z,1008.92
2017-11-19T11:53:14.958Z,1008.97
2017-11-19T11:55:07.950Z,1009.06
2017-11-19T11:56:07.998Z,1009.06
2017-11-19T11:58:01.017Z,1009.06
2017-11-19T11:59:01.064Z,1009.02
2017-11-19T12:00:54.104Z,1009.08
2017-11-19T12:01:54.155Z,1009.11
2017-11-19T12:03:47.688Z,1009.12
2017-11-19T12:04:47.702Z,1009.06
2017-11-19T12:06:40.693Z,1009.20
2017-11-19T12:07:40.744Z,1009.22
2017-11-19T12:09:33.764Z,1009.28
2017-11-19T12:10:33.788Z,1009.30
2017-11-19T12:12:27.316Z,1009.34
2017-11-19T12:13:27.330Z,1009.26
2017-11-19T12:15:21.833Z,1009.14
2017-11-19T12:16:21.898Z,1009.14
2017-11-19T12:18:14.899Z,1009.23
2017-11-19T12:19:14.929Z,1009.23
2017-11-19T12:21:07.955Z,1009.19
2017-11-19T12:22:08.030Z,1009.15
2017-11-19T12:24:01.090Z,1009.18
2017-11-19T12:25:01.232Z,1009.04
2017-11-19T12:26:54.571Z,1009.13
2017-11-19T12:27:54.218Z,1009.37
2017-11-19T12:29:47.216Z,1009.27
2017-11-19T12:30:47.196Z,1009.20
2017-11-19T12:32:40.175Z,1009.06
2017-11-19T12:33:40.210Z,1009.05
2017-11-19T12:35:33.204Z,1009.14
2017-11-19T12:36:33.257Z,1009.18
2017-11-19T12:38:26.269Z,1009.22
2017-11-19T12:39:26.305Z,1009.23
2017-11-19T12:41:19.288Z,1009.31
2017-11-19T12:42:19.349Z,1009.34
2017-11-19T12:44:12.365Z,1009.35
2017-11-19T12:45:12.399Z,1009.33
2017-11-19T12:47:05.409Z,1009.36
2017-11-19T12:48:05.476Z,1009.37
2017-11-19T12:49:58.475Z,1009.44
2017-11-19T12:50:58.514Z,1009.45
2017-11-19T12:52:51.503Z,1009.37
2017-11-19T12:53:51.547Z,1009.36
2017-11-19T12:55:44.534Z,1009.38
2017-11-19T12:56:44.572Z,1009.45
2017-11-19T12:58:37.595Z,1009.66
2017-11-19T12:59:37.617Z,1009.63
2017-11-19T13:01:30.608Z,1009.69
2017-11-19T13:02:30.660Z,1009.50
2017-11-19T13:04:23.672Z,1009.75
2017-11-19T13:05:23.711Z,1009.78
2017-11-19T13:07:16.694Z,1009.46
2017-11-19T13:08:16.754Z,1009.42
2017-11-19T13:10:09.752Z,1009.46
2017-11-19T13:11:09.786Z,1009.41
2017-11-19T13:13:02.807Z,1009.45
2017-11-19T13:14:02.843Z,1009.40
2017-11-19T13:15:56.342Z,1009.34
2017-11-19T13:16:56.395Z,1009.37
2017-11-19T13:18:49.426Z,1009.35
2017-11-19T13:19:49.443Z,1009.39
2017-11-19T13:21:42.454Z,1009.38
2017-11-19T13:22:42.551Z,1009.44
2017-11-19T13:24:35.521Z,1009.57
2017-11-19T13:25:35.564Z,1009.64
2017-11-19T13:27:28.562Z,1009.62
2017-11-19T13:28:28.613Z,1009.63
2017-11-19T13:30:23.185Z,1009.52
2017-11-19T13:31:23.207Z,1009.52
2017-11-19T13:33:16.269Z,1009.37
2017-11-19T13:34:16.245Z,1009.36
2017-11-19T13:36:09.237Z,1009.39
2017-11-19T13:37:09.292Z,1009.36
2017-11-19T13:39:02.320Z,1009.37
2017-11-19T13:40:02.347Z,1009.36
2017-11-19T13:41:55.393Z,1009.37
2017-11-19T13:42:55.443Z,1009.35
2017-11-19T13:44:48.472Z,1009.35
2017-11-19T13:45:48.505Z,1009.38
2017-11-19T13:47:41.556Z,1009.34
2017-11-19T13:48:41.623Z,1009.33
2017-11-19T13:50:34.625Z,1009.38
2017-11-19T13:51:34.651Z,1009.40
2017-11-19T13:53:27.659Z,1009.43
2017-11-19T13:54:27.737Z,1009.45
2017-11-19T13:56:20.681Z,1009.54
2017-11-19T13:57:20.740Z,1009.57
2017-11-19T13:59:13.771Z,1009.63
2017-11-19T14:00:13.819Z,1009.69
2017-11-19T14:02:06.790Z,1009.89
2017-11-19T14:03:06.839Z,1009.93
2017-11-19T14:05:00.861Z,1010.10
2017-11-19T14:06:00.895Z,1010.11
2017-11-19T14:07:53.876Z,1010.08
2017-11-19T14:08:53.952Z,1009.95
2017-11-19T14:10:46.929Z,1009.96
2017-11-19T14:11:46.984Z,1009.90
2017-11-19T14:13:39.973Z,1009.87
2017-11-19T14:14:40.007Z,1009.87
2017-11-19T14:16:32.984Z,1009.75
2017-11-19T14:17:33.056Z,1009.75
2017-11-19T14:19:26.047Z,1009.66
2017-11-19T14:20:26.082Z,1009.44
2017-11-19T14:22:19.062Z,1009.48
2017-11-19T14:23:19.138Z,1009.55
2017-11-19T14:25:12.121Z,1009.68
2017-11-19T14:26:12.161Z,1009.64
2017-11-19T14:28:05.136Z,1009.69
2017-11-19T14:29:05.192Z,1009.68
2017-11-19T14:30:58.191Z,1009.66
2017-11-19T14:31:58.226Z,1009.68
2017-11-19T14:33:51.237Z,1009.68
2017-11-19T14:34:51.264Z,1009.72
2017-11-19T14:36:44.246Z,1009.68
2017-11-19T14:37:44.299Z,1009.70
2017-11-19T14:39:37.301Z,1009.63
2017-11-19T14:40:37.336Z,1009.66
2017-11-19T14:42:30.314Z,1009.64
2017-11-19T14:43:30.373Z,1009.65
2017-11-19T14:45:23.393Z,1009.61
2017-11-19T14:46:23.413Z,1009.62
2017-11-19T14:48:16.397Z,1009.67
2017-11-19T14:49:16.449Z,1009.64
2017-11-19T14:51:09.957Z,1009.66
2017-11-19T14:52:09.994Z,1009.67
2017-11-19T14:54:02.994Z,1009.76
2017-11-19T14:55:03.031Z,1009.75
2017-11-19T14:56:56.023Z,1009.80
2017-11-19T14:57:56.071Z,1009.80
2017-11-19T14:59:49.070Z,1009.84
2017-11-19T15:00:49.103Z,1009.90
2017-11-19T15:02:42.087Z,1009.89
2017-11-19T15:03:42.139Z,1009.89
2017-11-19T15:05:35.143Z,1009.93
2017-11-19T15:06:35.174Z,1010.03
2017-11-19T15:08:28.151Z,1010.00
2017-11-19T15:09:28.209Z,1010.01
2017-11-19T15:11:21.209Z,1010.00
2017-11-19T15:12:21.246Z,1009.98
2017-11-19T15:14:14.243Z,1009.96
2017-11-19T15:15:14.286Z,1009.98
2017-11-19T15:17:07.257Z,1009.97
2017-11-19T15:18:07.312Z,1010.00
2017-11-19T15:20:00.351Z,1010.02
2017-11-19T15:21:00.403Z,1009.99
2017-11-19T15:22:53.371Z,1010.03
2017-11-19T15:23:53.423Z,1010.03
2017-11-19T15:25:46.601Z,1010.07
2017-11-19T15:26:46.632Z,1010.12
2017-11-19T15:28:39.614Z,1010.09
2017-11-19T15:29:39.667Z,1010.07
2017-11-19T15:31:33.184Z,1010.12
2017-11-19T15:32:33.207Z,1010.14
2017-11-19T15:34:26.205Z,1010.15
2017-11-19T15:35:26.276Z,1010.16
2017-11-19T15:37:19.221Z,1010.10
2017-11-19T15:38:19.277Z,1010.11
2017-11-19T15:40:12.281Z,1010.09
2017-11-19T15:41:12.318Z,1010.11
2017-11-19T15:43:05.305Z,1010.08
2017-11-19T15:44:05.356Z,1010.07
2017-11-19T15:45:58.360Z,1010.08
2017-11-19T15:46:58.392Z,1010.08
2017-11-19T15:48:51.376Z,1010.10
2017-11-19T15:49:51.430Z,1010.15
2017-11-19T15:51:44.430Z,1010.12
2017-11-19T15:52:44.469Z,1010.17
2017-11-19T15:54:37.476Z,1010.18
2017-11-19T15:55:37.521Z,1010.15
2017-11-19T15:57:30.489Z,1010.19
2017-11-19T15:58:30.546Z,1010.18
2017-11-19T16:00:23.545Z,1010.23
2017-11-19T16:01:23.581Z,1010.28
2017-11-19T16:03:16.557Z,1010.27
2017-11-19T16:04:16.611Z,1010.30
2017-11-19T16:06:09.611Z,1010.34
2017-11-19T16:07:09.647Z,1010.38
2017-11-19T16:09:02.635Z,1010.39
2017-11-19T16:10:02.685Z,1010.39
2017-11-19T16:11:55.677Z,1010.42
2017-11-19T16:12:55.711Z,1010.42
2017-11-19T16:14:48.713Z,1010.42
2017-11-19T16:15:48.748Z,1010.39
2017-11-19T16:17:41.746Z,1010.40
2017-11-19T16:18:41.783Z,1010.47
2017-11-19T16:20:35.322Z,1010.51
2017-11-19T16:21:35.325Z,1010.51
2017-11-19T16:23:28.307Z,1010.52
2017-11-19T16:24:28.778Z,1010.58
2017-11-19T16:26:21.369Z,1010.59
2017-11-19T16:27:21.398Z,1010.62
2017-11-19T16:29:14.380Z,1010.60
2017-11-19T16:30:14.443Z,1010.62
2017-11-19T16:32:07.443Z,1010.63
2017-11-19T16:33:07.479Z,1010.60
2017-11-19T16:35:00.479Z,1010.62
2017-11-19T16:36:00.518Z,1010.65
2017-11-19T16:37:53.500Z,1010.68
2017-11-19T16:38:53.558Z,1010.72
2017-11-19T16:40:46.554Z,1010.74
2017-11-19T16:41:46.590Z,1010.75
2017-11-19T16:43:39.575Z,1010.75
2017-11-19T16:44:39.640Z,1010.74
2017-11-19T16:46:32.636Z,1010.75
2017-11-19T16:47:32.681Z,1010.74
2017-11-19T16:49:25.650Z,1010.72
2017-11-19T16:50:25.707Z,1010.72
2017-11-19T16:52:18.710Z,1010.73
2017-11-19T16:53:18.748Z,1010.76
2017-11-19T16:55:11.760Z,1010.74
2017-11-19T16:56:11.807Z,1010.77
2017-11-19T16:58:04.769Z,1010.78
2017-11-19T16:59:04.829Z,1010.79
2017-11-19T17:00:57.831Z,1010.86
2017-11-19T17:01:57.862Z,1010.85
2017-11-19T17:03:50.840Z,1010.91
2017-11-19T17:04:50.898Z,1010.85
2017-11-19T17:06:43.899Z,1010.93
2017-11-19T17:07:43.937Z,1010.96
2017-11-19T17:09:36.925Z,1010.99
2017-11-19T17:10:36.993Z,1011.00
2017-11-19T17:12:29.982Z,1011.02
2017-11-19T17:13:30.033Z,1011.01
2017-11-19T17:15:23.032Z,1011.07
2017-11-19T17:16:23.062Z,1011.05
2017-11-19T17:18:16.045Z,1011.00
2017-11-19T17:19:16.105Z,1011.00
2017-11-19T17:21:09.158Z,1011.06
2017-11-19T17:22:09.161Z,1011.09
2017-11-19T17:24:02.669Z,1011.13
2017-11-19T17:25:02.702Z,1011.17
2017-11-19T17:26:55.741Z,1011.16